sensor_id;sensor_type;location;lat;lon;timestamp;temperature;humidity
41628;DHT22;27321;50.816;6.054;2023-08-06T00:02:25;17.30;76.70
41628;DHT22;27321;50.816;6.054;2023-08-06T00:05:26;17.20;76.80
41628;DHT22;27321;50.816;6.054;2023-08-06T00:08:27;17.20;76.70
41628;DHT22;27321;50.816;6.054;2023-08-06T00:11:27;17.20;76.50
41628;DHT22;27321;50.816;6.054;2023-08-06T00:14:28;17.10;77.00
41628;DHT22;27321;50.816;6.054;2023-08-06T00:17:29;17.10;77.10
41628;DHT22;27321;50.816;6.054;2023-08-06T00:20:30;17.10;77.30
41628;DHT22;27321;50.816;6.054;2023-08-06T00:23:31;17.10;77.00
41628;DHT22;27321;50.816;6.054;2023-08-06T00:26:32;17.10;76.90
41628;DHT22;27321;50.816;6.054;2023-08-06T00:29:33;17.10;76.80
41628;DHT22;27321;50.816;6.054;2023-08-06T00:32:34;17.10;76.80
41628;DHT22;27321;50.816;6.054;2023-08-06T00:35:35;17.00;76.80
41628;DHT22;27321;50.816;6.054;2023-08-06T00:38:36;17.00;76.70
41628;DHT22;27321;50.816;6.054;2023-08-06T00:41:37;17.00;76.70
41628;DHT22;27321;50.816;6.054;2023-08-06T00:44:39;17.00;76.70
41628;DHT22;27321;50.816;6.054;2023-08-06T00:47:43;17.00;76.80
41628;DHT22;27321;50.816;6.054;2023-08-06T00:50:45;16.90;76.80
41628;DHT22;27321;50.816;6.054;2023-08-06T00:53:47;17.00;76.60
41628;DHT22;27321;50.816;6.054;2023-08-06T00:56:50;16.90;76.50
41628;DHT22;27321;50.816;6.054;2023-08-06T00:59:51;16.90;76.60
41628;DHT22;27321;50.816;6.054;2023-08-06T01:02:53;16.90;76.50
41628;DHT22;27321;50.816;6.054;2023-08-06T01:05:54;16.90;76.50
41628;DHT22;27321;50.816;6.054;2023-08-06T01:09:00;16.80;76.20
41628;DHT22;27321;50.816;6.054;2023-08-06T01:12:42;16.80;76.60
41628;DHT22;27321;50.816;6.054;2023-08-06T01:15:50;16.80;76.60
41628;DHT22;27321;50.816;6.054;2023-08-06T01:18:58;16.80;76.90
41628;DHT22;27321;50.816;6.054;2023-08-06T01:21:59;16.90;76.90
41628;DHT22;27321;50.816;6.054;2023-08-06T01:25:00;16.90;76.90
41628;DHT22;27321;50.816;6.054;2023-08-06T01:28:13;17.00;76.90
41628;DHT22;27321;50.816;6.054;2023-08-06T01:31:29;17.00;76.90
41628;DHT22;27321;50.816;6.054;2023-08-06T01:34:34;17.10;76.70
41628;DHT22;27321;50.816;6.054;2023-08-06T01:37:36;17.10;76.60
41628;DHT22;27321;50.816;6.054;2023-08-06T01:40:37;17.10;76.50
41628;DHT22;27321;50.816;6.054;2023-08-06T01:43:38;17.10;76.50
41628;DHT22;27321;50.816;6.054;2023-08-06T01:46:39;17.20;76.50
41628;DHT22;27321;50.816;6.054;2023-08-06T01:49:42;17.20;76.20
41628;DHT22;27321;50.816;6.054;2023-08-06T01:52:43;17.20;76.30
41628;DHT22;27321;50.816;6.054;2023-08-06T01:55:50;17.20;76.40
41628;DHT22;27321;50.816;6.054;2023-08-06T01:58:51;17.20;76.50
41628;DHT22;27321;50.816;6.054;2023-08-06T02:01:53;17.20;76.60
41628;DHT22;27321;50.816;6.054;2023-08-06T02:04:54;17.20;76.50
41628;DHT22;27321;50.816;6.054;2023-08-06T02:07:55;17.20;76.50
41628;DHT22;27321;50.816;6.054;2023-08-06T02:10:56;17.20;76.70
41628;DHT22;27321;50.816;6.054;2023-08-06T02:13:58;17.30;76.70
41628;DHT22;27321;50.816;6.054;2023-08-06T02:16:59;17.30;76.60
41628;DHT22;27321;50.816;6.054;2023-08-06T02:20:00;17.30;76.70
41628;DHT22;27321;50.816;6.054;2023-08-06T02:23:02;17.30;76.60
41628;DHT22;27321;50.816;6.054;2023-08-06T02:26:04;17.30;76.60
41628;DHT22;27321;50.816;6.054;2023-08-06T02:29:05;17.20;76.70
41628;DHT22;27321;50.816;6.054;2023-08-06T02:32:06;17.20;77.00
41628;DHT22;27321;50.816;6.054;2023-08-06T02:35:08;17.20;77.00
41628;DHT22;27321;50.816;6.054;2023-08-06T02:38:09;17.20;77.20
41628;DHT22;27321;50.816;6.054;2023-08-06T02:41:10;17.20;77.10
41628;DHT22;27321;50.816;6.054;2023-08-06T02:44:11;17.20;77.30
41628;DHT22;27321;50.816;6.054;2023-08-06T02:47:12;17.30;77.20
41628;DHT22;27321;50.816;6.054;2023-08-06T02:50:13;17.20;77.30
41628;DHT22;27321;50.816;6.054;2023-08-06T02:53:14;17.20;77.30
41628;DHT22;27321;50.816;6.054;2023-08-06T02:56:15;17.20;77.40
41628;DHT22;27321;50.816;6.054;2023-08-06T02:59:34;17.20;77.50
41628;DHT22;27321;50.816;6.054;2023-08-06T03:02:46;17.30;77.50
41628;DHT22;27321;50.816;6.054;2023-08-06T03:06:00;17.30;77.60
41628;DHT22;27321;50.816;6.054;2023-08-06T03:09:17;17.20;77.60
41628;DHT22;27321;50.816;6.054;2023-08-06T03:12:19;17.20;77.60
41628;DHT22;27321;50.816;6.054;2023-08-06T03:15:20;17.30;77.60
41628;DHT22;27321;50.816;6.054;2023-08-06T03:18:22;17.20;77.70
41628;DHT22;27321;50.816;6.054;2023-08-06T03:21:25;17.30;77.80
41628;DHT22;27321;50.816;6.054;2023-08-06T03:24:26;17.30;77.70
41628;DHT22;27321;50.816;6.054;2023-08-06T03:27:27;17.30;77.90
41628;DHT22;27321;50.816;6.054;2023-08-06T03:30:28;17.20;77.90
41628;DHT22;27321;50.816;6.054;2023-08-06T03:33:29;17.20;78.10
41628;DHT22;27321;50.816;6.054;2023-08-06T03:36:33;17.20;78.20
41628;DHT22;27321;50.816;6.054;2023-08-06T03:39:35;17.10;78.50
41628;DHT22;27321;50.816;6.054;2023-08-06T03:42:36;17.10;78.60
41628;DHT22;27321;50.816;6.054;2023-08-06T03:45:38;17.10;78.70
41628;DHT22;27321;50.816;6.054;2023-08-06T03:48:39;17.10;78.80
41628;DHT22;27321;50.816;6.054;2023-08-06T03:51:40;17.10;79.00
41628;DHT22;27321;50.816;6.054;2023-08-06T03:54:41;17.10;79.20
41628;DHT22;27321;50.816;6.054;2023-08-06T03:57:43;17.10;79.20
41628;DHT22;27321;50.816;6.054;2023-08-06T04:00:44;17.10;79.10
41628;DHT22;27321;50.816;6.054;2023-08-06T04:03:45;17.10;79.30
41628;DHT22;27321;50.816;6.054;2023-08-06T04:06:47;17.10;79.40
41628;DHT22;27321;50.816;6.054;2023-08-06T04:09:59;17.10;79.40
41628;DHT22;27321;50.816;6.054;2023-08-06T04:13:01;17.10;79.50
41628;DHT22;27321;50.816;6.054;2023-08-06T04:16:04;17.10;79.60
41628;DHT22;27321;50.816;6.054;2023-08-06T04:19:07;17.10;79.60
41628;DHT22;27321;50.816;6.054;2023-08-06T04:22:08;17.00;79.70
41628;DHT22;27321;50.816;6.054;2023-08-06T04:25:09;17.00;79.70
41628;DHT22;27321;50.816;6.054;2023-08-06T04:28:10;17.00;80.10
41628;DHT22;27321;50.816;6.054;2023-08-06T04:31:11;17.00;80.10
41628;DHT22;27321;50.816;6.054;2023-08-06T04:34:14;17.00;80.10
41628;DHT22;27321;50.816;6.054;2023-08-06T04:37:15;17.00;80.30
41628;DHT22;27321;50.816;6.054;2023-08-06T04:40:16;16.90;80.20
41628;DHT22;27321;50.816;6.054;2023-08-06T04:43:18;16.80;80.60
41628;DHT22;27321;50.816;6.054;2023-08-06T04:46:19;16.80;80.60
41628;DHT22;27321;50.816;6.054;2023-08-06T04:49:20;16.70;80.70
41628;DHT22;27321;50.816;6.054;2023-08-06T04:52:22;16.60;80.80
41628;DHT22;27321;50.816;6.054;2023-08-06T04:55:22;16.60;80.00
41628;DHT22;27321;50.816;6.054;2023-08-06T04:58:23;16.50;80.80
41628;DHT22;27321;50.816;6.054;2023-08-06T05:01:25;16.60;81.20
41628;DHT22;27321;50.816;6.054;2023-08-06T05:04:26;16.60;81.30
41628;DHT22;27321;50.816;6.054;2023-08-06T05:07:27;16.60;81.30
41628;DHT22;27321;50.816;6.054;2023-08-06T05:10:28;16.60;81.20
41628;DHT22;27321;50.816;6.054;2023-08-06T05:13:29;16.70;80.90
41628;DHT22;27321;50.816;6.054;2023-08-06T05:16:30;16.70;81.10
41628;DHT22;27321;50.816;6.054;2023-08-06T05:19:31;16.70;80.90
41628;DHT22;27321;50.816;6.054;2023-08-06T05:22:32;16.70;81.00
41628;DHT22;27321;50.816;6.054;2023-08-06T05:25:37;16.60;81.50
41628;DHT22;27321;50.816;6.054;2023-08-06T05:28:38;16.70;81.60
41628;DHT22;27321;50.816;6.054;2023-08-06T05:31:39;16.70;81.50
41628;DHT22;27321;50.816;6.054;2023-08-06T05:34:40;16.70;81.20
41628;DHT22;27321;50.816;6.054;2023-08-06T05:37:42;16.70;81.50
41628;DHT22;27321;50.816;6.054;2023-08-06T05:40:43;16.80;81.50
41628;DHT22;27321;50.816;6.054;2023-08-06T05:43:44;16.80;81.30
41628;DHT22;27321;50.816;6.054;2023-08-06T05:46:44;16.80;81.30
41628;DHT22;27321;50.816;6.054;2023-08-06T05:49:45;16.90;81.30
41628;DHT22;27321;50.816;6.054;2023-08-06T05:52:46;16.90;81.10
41628;DHT22;27321;50.816;6.054;2023-08-06T05:55:47;16.80;81.00
41628;DHT22;27321;50.816;6.054;2023-08-06T05:58:48;16.80;81.10
41628;DHT22;27321;50.816;6.054;2023-08-06T06:01:52;16.80;80.90
41628;DHT22;27321;50.816;6.054;2023-08-06T06:04:52;16.80;80.80
41628;DHT22;27321;50.816;6.054;2023-08-06T06:07:53;16.80;81.10
41628;DHT22;27321;50.816;6.054;2023-08-06T06:10:55;16.80;81.20
41628;DHT22;27321;50.816;6.054;2023-08-06T06:13:55;16.80;80.90
41628;DHT22;27321;50.816;6.054;2023-08-06T06:16:56;16.80;80.80
41628;DHT22;27321;50.816;6.054;2023-08-06T06:19:57;16.80;81.20
41628;DHT22;27321;50.816;6.054;2023-08-06T06:22:58;16.90;80.60
41628;DHT22;27321;50.816;6.054;2023-08-06T06:25:59;16.90;81.10
41628;DHT22;27321;50.816;6.054;2023-08-06T06:29:00;16.90;80.80
41628;DHT22;27321;50.816;6.054;2023-08-06T06:32:01;16.90;81.30
41628;DHT22;27321;50.816;6.054;2023-08-06T06:35:02;17.00;81.30
41628;DHT22;27321;50.816;6.054;2023-08-06T06:38:04;17.00;81.50
41628;DHT22;27321;50.816;6.054;2023-08-06T06:41:05;17.10;81.40
41628;DHT22;27321;50.816;6.054;2023-08-06T06:44:06;17.10;81.40
41628;DHT22;27321;50.816;6.054;2023-08-06T06:47:07;17.10;81.40
41628;DHT22;27321;50.816;6.054;2023-08-06T06:50:08;17.10;81.40
41628;DHT22;27321;50.816;6.054;2023-08-06T06:53:09;17.10;81.40
41628;DHT22;27321;50.816;6.054;2023-08-06T06:56:10;17.20;81.80
41628;DHT22;27321;50.816;6.054;2023-08-06T06:59:11;17.30;81.90
41628;DHT22;27321;50.816;6.054;2023-08-06T07:02:12;17.30;81.60
41628;DHT22;27321;50.816;6.054;2023-08-06T07:05:13;17.30;81.50
41628;DHT22;27321;50.816;6.054;2023-08-06T07:08:14;17.30;81.30
41628;DHT22;27321;50.816;6.054;2023-08-06T07:11:15;17.20;81.10
41628;DHT22;27321;50.816;6.054;2023-08-06T07:14:17;17.10;81.60
41628;DHT22;27321;50.816;6.054;2023-08-06T07:17:18;17.10;81.70
41628;DHT22;27321;50.816;6.054;2023-08-06T07:20:19;17.00;82.20
41628;DHT22;27321;50.816;6.054;2023-08-06T07:23:25;17.00;82.50
41628;DHT22;27321;50.816;6.054;2023-08-06T07:26:26;17.00;82.60
41628;DHT22;27321;50.816;6.054;2023-08-06T07:29:27;17.10;82.50
41628;DHT22;27321;50.816;6.054;2023-08-06T07:32:28;17.10;82.10
41628;DHT22;27321;50.816;6.054;2023-08-06T07:35:29;17.10;82.40
41628;DHT22;27321;50.816;6.054;2023-08-06T07:38:30;17.10;82.40
41628;DHT22;27321;50.816;6.054;2023-08-06T07:41:31;17.10;82.00
41628;DHT22;27321;50.816;6.054;2023-08-06T07:44:32;17.00;82.30
41628;DHT22;27321;50.816;6.054;2023-08-06T07:47:33;17.10;82.80
41628;DHT22;27321;50.816;6.054;2023-08-06T07:50:34;17.10;82.50
41628;DHT22;27321;50.816;6.054;2023-08-06T07:53:35;16.80;81.00
41628;DHT22;27321;50.816;6.054;2023-08-06T07:56:36;16.60;81.80
41628;DHT22;27321;50.816;6.054;2023-08-06T07:59:37;16.30;82.60
41628;DHT22;27321;50.816;6.054;2023-08-06T08:02:38;16.20;83.50
41628;DHT22;27321;50.816;6.054;2023-08-06T08:05:43;16.00;84.00
41628;DHT22;27321;50.816;6.054;2023-08-06T08:08:44;15.90;84.50
41628;DHT22;27321;50.816;6.054;2023-08-06T08:11:46;15.90;84.60
41628;DHT22;27321;50.816;6.054;2023-08-06T08:14:48;15.90;84.20
41628;DHT22;27321;50.816;6.054;2023-08-06T08:17:49;16.00;83.00
41628;DHT22;27321;50.816;6.054;2023-08-06T08:20:50;15.90;83.50
41628;DHT22;27321;50.816;6.054;2023-08-06T08:23:51;15.80;84.10
41628;DHT22;27321;50.816;6.054;2023-08-06T08:26:53;15.80;83.70
41628;DHT22;27321;50.816;6.054;2023-08-06T08:29:54;15.80;84.20
41628;DHT22;27321;50.816;6.054;2023-08-06T08:32:55;15.80;83.60
41628;DHT22;27321;50.816;6.054;2023-08-06T08:35:56;15.80;83.90
41628;DHT22;27321;50.816;6.054;2023-08-06T08:38:57;15.80;83.20
41628;DHT22;27321;50.816;6.054;2023-08-06T08:41:59;15.80;84.00
41628;DHT22;27321;50.816;6.054;2023-08-06T08:45:00;15.80;83.50
41628;DHT22;27321;50.816;6.054;2023-08-06T08:48:03;15.80;83.80
41628;DHT22;27321;50.816;6.054;2023-08-06T08:51:04;15.80;83.10
41628;DHT22;27321;50.816;6.054;2023-08-06T08:54:07;15.70;83.20
41628;DHT22;27321;50.816;6.054;2023-08-06T08:57:09;15.70;82.70
41628;DHT22;27321;50.816;6.054;2023-08-06T09:00:10;15.70;82.00
41628;DHT22;27321;50.816;6.054;2023-08-06T09:03:11;15.60;82.20
41628;DHT22;27321;50.816;6.054;2023-08-06T09:06:12;15.50;82.90
41628;DHT22;27321;50.816;6.054;2023-08-06T09:09:24;15.60;82.90
41628;DHT22;27321;50.816;6.054;2023-08-06T09:12:27;15.60;82.60
41628;DHT22;27321;50.816;6.054;2023-08-06T09:15:28;15.60;82.00
41628;DHT22;27321;50.816;6.054;2023-08-06T09:18:30;15.60;82.50
41628;DHT22;27321;50.816;6.054;2023-08-06T09:21:31;15.60;82.50
41628;DHT22;27321;50.816;6.054;2023-08-06T09:24:32;15.60;82.30
41628;DHT22;27321;50.816;6.054;2023-08-06T09:27:33;15.60;81.80
41628;DHT22;27321;50.816;6.054;2023-08-06T09:30:38;15.60;81.90
41628;DHT22;27321;50.816;6.054;2023-08-06T09:33:39;15.70;82.40
41628;DHT22;27321;50.816;6.054;2023-08-06T09:36:41;15.80;81.40
41628;DHT22;27321;50.816;6.054;2023-08-06T09:39:45;15.80;81.60
41628;DHT22;27321;50.816;6.054;2023-08-06T09:42:46;15.80;81.00
41628;DHT22;27321;50.816;6.054;2023-08-06T09:45:47;15.80;81.10
41628;DHT22;27321;50.816;6.054;2023-08-06T09:48:48;15.90;80.70
41628;DHT22;27321;50.816;6.054;2023-08-06T09:51:51;15.90;81.20
41628;DHT22;27321;50.816;6.054;2023-08-06T09:54:54;15.90;81.00
41628;DHT22;27321;50.816;6.054;2023-08-06T09:57:55;15.90;80.90
41628;DHT22;27321;50.816;6.054;2023-08-06T10:00:57;15.90;81.60
41628;DHT22;27321;50.816;6.054;2023-08-06T10:03:58;16.00;81.70
41628;DHT22;27321;50.816;6.054;2023-08-06T10:07:01;16.00;82.00
41628;DHT22;27321;50.816;6.054;2023-08-06T10:10:03;16.10;80.80
41628;DHT22;27321;50.816;6.054;2023-08-06T10:13:06;15.90;81.40
41628;DHT22;27321;50.816;6.054;2023-08-06T10:16:08;16.00;82.00
41628;DHT22;27321;50.816;6.054;2023-08-06T10:19:11;15.90;82.20
41628;DHT22;27321;50.816;6.054;2023-08-06T10:22:17;16.00;82.00
41628;DHT22;27321;50.816;6.054;2023-08-06T10:25:18;16.00;82.00
41628;DHT22;27321;50.816;6.054;2023-08-06T10:33:20;16.00;81.90
41628;DHT22;27321;50.816;6.054;2023-08-06T10:36:22;16.10;82.40
41628;DHT22;27321;50.816;6.054;2023-08-06T10:39:23;16.20;81.80
41628;DHT22;27321;50.816;6.054;2023-08-06T10:42:28;16.10;82.20
41628;DHT22;27321;50.816;6.054;2023-08-06T10:45:30;16.10;82.70
41628;DHT22;27321;50.816;6.054;2023-08-06T10:48:40;16.20;82.40
41628;DHT22;27321;50.816;6.054;2023-08-06T10:51:42;16.30;83.20
41628;DHT22;27321;50.816;6.054;2023-08-06T10:54:43;16.40;82.20
41628;DHT22;27321;50.816;6.054;2023-08-06T10:57:45;16.50;82.60
41628;DHT22;27321;50.816;6.054;2023-08-06T11:00:46;16.50;82.10
41628;DHT22;27321;50.816;6.054;2023-08-06T11:03:47;16.50;82.10
41628;DHT22;27321;50.816;6.054;2023-08-06T11:06:53;16.50;82.20
41628;DHT22;27321;50.816;6.054;2023-08-06T11:10:01;16.50;82.10
41628;DHT22;27321;50.816;6.054;2023-08-06T11:13:06;16.50;81.70
41628;DHT22;27321;50.816;6.054;2023-08-06T11:16:09;16.50;81.50
41628;DHT22;27321;50.816;6.054;2023-08-06T11:19:10;16.50;82.50
41628;DHT22;27321;50.816;6.054;2023-08-06T11:22:11;16.50;82.00
41628;DHT22;27321;50.816;6.054;2023-08-06T11:25:12;16.50;82.30
41628;DHT22;27321;50.816;6.054;2023-08-06T11:28:13;16.60;82.50
41628;DHT22;27321;50.816;6.054;2023-08-06T11:31:23;16.60;81.90
41628;DHT22;27321;50.816;6.054;2023-08-06T11:34:24;16.50;81.80
41628;DHT22;27321;50.816;6.054;2023-08-06T11:37:26;16.50;81.50
41628;DHT22;27321;50.816;6.054;2023-08-06T11:40:27;16.50;81.50
41628;DHT22;27321;50.816;6.054;2023-08-06T11:43:30;16.40;81.90
41628;DHT22;27321;50.816;6.054;2023-08-06T11:46:52;16.30;82.10
41628;DHT22;27321;50.816;6.054;2023-08-06T11:49:56;16.30;82.30
41628;DHT22;27321;50.816;6.054;2023-08-06T11:53:00;16.40;82.50
41628;DHT22;27321;50.816;6.054;2023-08-06T11:56:01;16.40;82.40
41628;DHT22;27321;50.816;6.054;2023-08-06T11:59:02;16.30;82.20
41628;DHT22;27321;50.816;6.054;2023-08-06T12:02:05;16.20;81.80
41628;DHT22;27321;50.816;6.054;2023-08-06T12:05:13;16.10;82.60
41628;DHT22;27321;50.816;6.054;2023-08-06T12:08:14;16.10;83.40
41628;DHT22;27321;50.816;6.054;2023-08-06T12:11:15;16.10;84.00
41628;DHT22;27321;50.816;6.054;2023-08-06T12:14:16;16.20;84.40
41628;DHT22;27321;50.816;6.054;2023-08-06T12:17:17;16.30;84.10
41628;DHT22;27321;50.816;6.054;2023-08-06T12:20:18;16.30;83.60
41628;DHT22;27321;50.816;6.054;2023-08-06T12:23:20;16.50;83.60
41628;DHT22;27321;50.816;6.054;2023-08-06T12:26:21;16.50;83.80
41628;DHT22;27321;50.816;6.054;2023-08-06T12:29:21;16.60;83.50
41628;DHT22;27321;50.816;6.054;2023-08-06T12:32:22;16.60;83.30
41628;DHT22;27321;50.816;6.054;2023-08-06T12:35:24;16.60;83.60
41628;DHT22;27321;50.816;6.054;2023-08-06T12:38:26;16.60;83.10
41628;DHT22;27321;50.816;6.054;2023-08-06T12:41:27;16.60;82.30
41628;DHT22;27321;50.816;6.054;2023-08-06T12:44:28;16.50;82.70
41628;DHT22;27321;50.816;6.054;2023-08-06T12:47:29;16.60;82.40
41628;DHT22;27321;50.816;6.054;2023-08-06T12:50:30;16.50;80.90
41628;DHT22;27321;50.816;6.054;2023-08-06T12:53:33;16.50;81.50
41628;DHT22;27321;50.816;6.054;2023-08-06T12:56:34;16.50;80.90
41628;DHT22;27321;50.816;6.054;2023-08-06T12:59:35;16.40;81.60
41628;DHT22;27321;50.816;6.054;2023-08-06T13:02:37;16.40;81.90
41628;DHT22;27321;50.816;6.054;2023-08-06T13:05:38;16.40;81.90
41628;DHT22;27321;50.816;6.054;2023-08-06T13:08:39;16.30;81.50
41628;DHT22;27321;50.816;6.054;2023-08-06T13:11:40;16.30;82.10
41628;DHT22;27321;50.816;6.054;2023-08-06T13:14:41;16.20;82.50
41628;DHT22;27321;50.816;6.054;2023-08-06T13:17:42;16.20;82.40
41628;DHT22;27321;50.816;6.054;2023-08-06T13:20:43;16.20;82.80
41628;DHT22;27321;50.816;6.054;2023-08-06T13:23:44;16.30;82.60
41628;DHT22;27321;50.816;6.054;2023-08-06T13:26:45;16.40;82.80
41628;DHT22;27321;50.816;6.054;2023-08-06T13:29:46;16.50;81.90
41628;DHT22;27321;50.816;6.054;2023-08-06T13:32:47;16.50;81.40
41628;DHT22;27321;50.816;6.054;2023-08-06T13:35:48;16.30;82.40
41628;DHT22;27321;50.816;6.054;2023-08-06T13:38:52;16.40;82.70
41628;DHT22;27321;50.816;6.054;2023-08-06T13:41:53;16.30;82.70
41628;DHT22;27321;50.816;6.054;2023-08-06T13:44:54;16.30;83.50
41628;DHT22;27321;50.816;6.054;2023-08-06T13:48:02;16.20;82.50
41628;DHT22;27321;50.816;6.054;2023-08-06T13:51:04;16.20;82.50
41628;DHT22;27321;50.816;6.054;2023-08-06T13:54:05;16.10;82.90
41628;DHT22;27321;50.816;6.054;2023-08-06T13:57:06;16.10;82.40
41628;DHT22;27321;50.816;6.054;2023-08-06T14:00:08;16.10;82.20
41628;DHT22;27321;50.816;6.054;2023-08-06T14:03:16;16.10;83.20
41628;DHT22;27321;50.816;6.054;2023-08-06T14:06:17;16.10;83.00
41628;DHT22;27321;50.816;6.054;2023-08-06T14:09:18;16.20;82.50
41628;DHT22;27321;50.816;6.054;2023-08-06T14:12:19;16.20;83.00
41628;DHT22;27321;50.816;6.054;2023-08-06T14:15:20;16.20;82.80
41628;DHT22;27321;50.816;6.054;2023-08-06T14:18:21;16.20;81.90
41628;DHT22;27321;50.816;6.054;2023-08-06T14:21:22;16.10;82.40
41628;DHT22;27321;50.816;6.054;2023-08-06T14:24:23;16.10;82.60
41628;DHT22;27321;50.816;6.054;2023-08-06T14:27:24;16.10;82.10
41628;DHT22;27321;50.816;6.054;2023-08-06T14:30:26;16.00;82.30
41628;DHT22;27321;50.816;6.054;2023-08-06T14:33:26;16.00;82.10
41628;DHT22;27321;50.816;6.054;2023-08-06T14:36:27;16.00;82.20
41628;DHT22;27321;50.816;6.054;2023-08-06T14:39:28;16.00;82.40
41628;DHT22;27321;50.816;6.054;2023-08-06T14:42:29;16.00;83.10
41628;DHT22;27321;50.816;6.054;2023-08-06T14:45:30;16.10;82.70
41628;DHT22;27321;50.816;6.054;2023-08-06T14:48:31;16.10;82.30
41628;DHT22;27321;50.816;6.054;2023-08-06T14:51:32;16.10;81.70
41628;DHT22;27321;50.816;6.054;2023-08-06T14:54:33;16.10;82.10
41628;DHT22;27321;50.816;6.054;2023-08-06T14:57:34;16.10;82.20
41628;DHT22;27321;50.816;6.054;2023-08-06T15:00:35;16.00;82.20
41628;DHT22;27321;50.816;6.054;2023-08-06T15:03:36;16.00;82.20
41628;DHT22;27321;50.816;6.054;2023-08-06T15:06:37;16.00;82.50
41628;DHT22;27321;50.816;6.054;2023-08-06T15:09:38;16.00;82.30
41628;DHT22;27321;50.816;6.054;2023-08-06T15:12:39;16.00;82.90
41628;DHT22;27321;50.816;6.054;2023-08-06T15:15:40;16.00;82.60
41628;DHT22;27321;50.816;6.054;2023-08-06T15:18:43;16.00;82.40
41628;DHT22;27321;50.816;6.054;2023-08-06T15:21:44;16.00;82.50
41628;DHT22;27321;50.816;6.054;2023-08-06T15:24:45;16.00;82.40
41628;DHT22;27321;50.816;6.054;2023-08-06T15:27:46;16.00;82.00
41628;DHT22;27321;50.816;6.054;2023-08-06T15:30:51;15.90;81.70
41628;DHT22;27321;50.816;6.054;2023-08-06T15:33:52;15.80;82.70
41628;DHT22;27321;50.816;6.054;2023-08-06T15:36:53;15.90;82.90
41628;DHT22;27321;50.816;6.054;2023-08-06T15:39:55;15.80;82.30
41628;DHT22;27321;50.816;6.054;2023-08-06T15:42:56;15.90;83.00
41628;DHT22;27321;50.816;6.054;2023-08-06T15:45:57;16.00;82.80
41628;DHT22;27321;50.816;6.054;2023-08-06T15:48:58;15.90;82.30
41628;DHT22;27321;50.816;6.054;2023-08-06T15:51:59;16.00;82.00
41628;DHT22;27321;50.816;6.054;2023-08-06T15:55:04;16.00;81.60
41628;DHT22;27321;50.816;6.054;2023-08-06T15:58:06;16.10;81.60
41628;DHT22;27321;50.816;6.054;2023-08-06T16:01:07;16.00;81.20
41628;DHT22;27321;50.816;6.054;2023-08-06T16:04:08;15.90;80.90
41628;DHT22;27321;50.816;6.054;2023-08-06T16:07:09;15.80;81.90
41628;DHT22;27321;50.816;6.054;2023-08-06T16:10:10;15.80;81.20
41628;DHT22;27321;50.816;6.054;2023-08-06T16:13:11;15.70;81.70
41628;DHT22;27321;50.816;6.054;2023-08-06T16:16:13;15.70;81.20
41628;DHT22;27321;50.816;6.054;2023-08-06T16:19:14;15.60;81.40
41628;DHT22;27321;50.816;6.054;2023-08-06T16:22:15;15.60;81.90
41628;DHT22;27321;50.816;6.054;2023-08-06T16:25:16;15.50;81.90
41628;DHT22;27321;50.816;6.054;2023-08-06T16:28:17;15.50;82.40
41628;DHT22;27321;50.816;6.054;2023-08-06T16:31:19;15.60;82.20
41628;DHT22;27321;50.816;6.054;2023-08-06T16:34:20;15.60;82.50
41628;DHT22;27321;50.816;6.054;2023-08-06T16:37:21;15.60;82.20
41628;DHT22;27321;50.816;6.054;2023-08-06T16:40:23;15.60;81.70
41628;DHT22;27321;50.816;6.054;2023-08-06T16:43:24;15.60;81.50
41628;DHT22;27321;50.816;6.054;2023-08-06T16:46:25;15.60;81.70
41628;DHT22;27321;50.816;6.054;2023-08-06T16:49:26;15.50;81.50
41628;DHT22;27321;50.816;6.054;2023-08-06T16:52:27;15.40;81.60
41628;DHT22;27321;50.816;6.054;2023-08-06T16:55:31;15.40;81.90
41628;DHT22;27321;50.816;6.054;2023-08-06T16:58:32;15.30;81.90
41628;DHT22;27321;50.816;6.054;2023-08-06T17:01:33;15.20;82.00
41628;DHT22;27321;50.816;6.054;2023-08-06T17:04:36;15.20;82.20
41628;DHT22;27321;50.816;6.054;2023-08-06T17:07:37;15.10;82.10
41628;DHT22;27321;50.816;6.054;2023-08-06T17:10:38;15.10;81.90
41628;DHT22;27321;50.816;6.054;2023-08-06T17:13:39;15.20;82.10
41628;DHT22;27321;50.816;6.054;2023-08-06T17:16:40;15.20;82.60
41628;DHT22;27321;50.816;6.054;2023-08-06T17:19:44;15.20;83.10
41628;DHT22;27321;50.816;6.054;2023-08-06T17:22:45;15.20;83.20
41628;DHT22;27321;50.816;6.054;2023-08-06T17:25:46;15.10;83.80
41628;DHT22;27321;50.816;6.054;2023-08-06T17:28:47;15.10;83.30
41628;DHT22;27321;50.816;6.054;2023-08-06T17:31:49;15.10;84.00
41628;DHT22;27321;50.816;6.054;2023-08-06T17:34:50;15.00;84.00
41628;DHT22;27321;50.816;6.054;2023-08-06T17:37:51;14.90;84.20
41628;DHT22;27321;50.816;6.054;2023-08-06T17:40:57;14.90;83.80
41628;DHT22;27321;50.816;6.054;2023-08-06T17:44:03;14.90;84.30
41628;DHT22;27321;50.816;6.054;2023-08-06T17:47:05;14.90;84.10
41628;DHT22;27321;50.816;6.054;2023-08-06T17:50:07;14.90;83.80
41628;DHT22;27321;50.816;6.054;2023-08-06T17:53:14;14.90;84.00
41628;DHT22;27321;50.816;6.054;2023-08-06T17:56:16;14.90;84.10
41628;DHT22;27321;50.816;6.054;2023-08-06T17:59:17;14.90;84.30
41628;DHT22;27321;50.816;6.054;2023-08-06T18:02:18;14.90;83.90
41628;DHT22;27321;50.816;6.054;2023-08-06T18:05:19;15.00;84.00
41628;DHT22;27321;50.816;6.054;2023-08-06T18:08:20;14.90;83.80
41628;DHT22;27321;50.816;6.054;2023-08-06T18:11:21;14.90;84.40
41628;DHT22;27321;50.816;6.054;2023-08-06T18:14:22;14.90;84.20
41628;DHT22;27321;50.816;6.054;2023-08-06T18:17:23;14.80;83.70
41628;DHT22;27321;50.816;6.054;2023-08-06T18:20:24;14.80;84.50
41628;DHT22;27321;50.816;6.054;2023-08-06T18:23:25;14.90;84.70
41628;DHT22;27321;50.816;6.054;2023-08-06T18:26:26;14.80;84.10
41628;DHT22;27321;50.816;6.054;2023-08-06T18:29:27;14.90;84.00
41628;DHT22;27321;50.816;6.054;2023-08-06T18:32:29;14.80;84.50
41628;DHT22;27321;50.816;6.054;2023-08-06T18:35:29;14.80;84.60
41628;DHT22;27321;50.816;6.054;2023-08-06T18:38:32;14.80;84.60
41628;DHT22;27321;50.816;6.054;2023-08-06T18:41:33;14.80;84.40
41628;DHT22;27321;50.816;6.054;2023-08-06T18:44:34;14.80;84.10
41628;DHT22;27321;50.816;6.054;2023-08-06T18:47:35;14.80;84.10
41628;DHT22;27321;50.816;6.054;2023-08-06T18:50:36;14.80;83.90
41628;DHT22;27321;50.816;6.054;2023-08-06T18:53:38;14.70;84.00
41628;DHT22;27321;50.816;6.054;2023-08-06T18:56:39;14.80;83.80
41628;DHT22;27321;50.816;6.054;2023-08-06T18:59:40;14.70;84.20
41628;DHT22;27321;50.816;6.054;2023-08-06T19:02:41;14.70;84.00
41628;DHT22;27321;50.816;6.054;2023-08-06T19:05:45;14.70;83.90
41628;DHT22;27321;50.816;6.054;2023-08-06T19:08:46;14.80;83.80
41628;DHT22;27321;50.816;6.054;2023-08-06T19:11:48;14.70;84.20
41628;DHT22;27321;50.816;6.054;2023-08-06T19:14:49;14.60;83.40